CheckWX is a tool to help pilots better visualize weather data.  It is not intended as a substitute for an official pre-flight weather briefing.

13:26:41 UTC

LFPG METAR
Charles de Gaulle International Airport
Paris, France
Current

27 mins ago

LFPG 201300Z 31010KT 260V340 9999 BKN032 18/11 Q1011 NOSIG
Observed
May-20 @ 13:00 UTC
Wind
  • 310° at 10 KTS
Visibility
10,000+ meters
Flight Rules
VFR
Cloud Levels
  • Broken at 3,200' AGL
Temperature
18°C / 64°F
Dewpoint
11°C / 52°F
Humidity
64%
Altimeter
29.85" Hg
Pressure
1010.92 hPa
Previous

57 mins ago

LFPG 201230Z 32011KT 300V360 9999 BKN031 18/11 Q1011 NOSIG
Observed
May-20 @ 12:30 UTC
Wind
  • 320° at 11 KTS
Visibility
10,000+ meters
Flight Rules
VFR
Cloud Levels
  • Broken at 3,100' AGL
Temperature
18°C / 64°F
Dewpoint
11°C / 52°F
Humidity
64%
Altimeter
29.85" Hg
Pressure
1010.92 hPa
Previous

1 hour ago

LFPG 201200Z 33011KT 300V010 9999 BKN031 18/11 Q1011 NOSIG
Observed
May-20 @ 12:00 UTC
Wind
  • 330° at 11 KTS
Visibility
10,000+ meters
Flight Rules
VFR
Cloud Levels
  • Broken at 3,100' AGL
Temperature
18°C / 64°F
Dewpoint
11°C / 52°F
Humidity
64%
Altimeter
29.85" Hg
Pressure
1010.92 hPa